sensor_id;sensor_type;location;lat;lon;timestamp;temperature;humidity
66710;DHT22;53624;0.000;0.000;2023-02-28T00:00:14;9.90;79.30
66710;DHT22;53624;0.000;0.000;2023-02-28T00:02:42;9.90;79.40
66710;DHT22;53624;0.000;0.000;2023-02-28T00:05:10;9.90;79.40
66710;DHT22;53624;0.000;0.000;2023-02-28T00:07:37;9.90;79.40
66710;DHT22;53624;0.000;0.000;2023-02-28T00:10:08;9.90;79.40
66710;DHT22;53624;0.000;0.000;2023-02-28T00:12:36;9.90;79.50
66710;DHT22;53624;0.000;0.000;2023-02-28T00:15:05;9.90;79.50
66710;DHT22;53624;0.000;0.000;2023-02-28T00:17:33;9.90;79.50
66710;DHT22;53624;0.000;0.000;2023-02-28T00:20:00;9.90;79.60
66710;DHT22;53624;0.000;0.000;2023-02-28T00:22:37;9.90;79.60
66710;DHT22;53624;0.000;0.000;2023-02-28T00:25:07;9.80;79.60
66710;DHT22;53624;0.000;0.000;2023-02-28T00:27:35;9.80;79.60
66710;DHT22;53624;0.000;0.000;2023-02-28T00:30:05;9.80;79.70
66710;DHT22;53624;0.000;0.000;2023-02-28T00:32:33;9.80;79.70
66710;DHT22;53624;0.000;0.000;2023-02-28T00:35:01;9.80;79.60
66710;DHT22;53624;0.000;0.000;2023-02-28T00:37:28;9.80;79.70
66710;DHT22;53624;0.000;0.000;2023-02-28T00:39:56;9.80;79.70
66710;DHT22;53624;0.000;0.000;2023-02-28T00:42:25;9.80;79.70
66710;DHT22;53624;0.000;0.000;2023-02-28T00:44:52;9.80;79.70
66710;DHT22;53624;0.000;0.000;2023-02-28T00:47:20;9.80;79.70
66710;DHT22;53624;0.000;0.000;2023-02-28T00:49:48;9.80;79.80
66710;DHT22;53624;0.000;0.000;2023-02-28T00:52:15;9.80;79.80
66710;DHT22;53624;0.000;0.000;2023-02-28T00:54:42;9.80;79.80
66710;DHT22;53624;0.000;0.000;2023-02-28T00:57:10;9.80;79.80
66710;DHT22;53624;0.000;0.000;2023-02-28T00:59:39;9.70;79.80
66710;DHT22;53624;0.000;0.000;2023-02-28T01:02:06;9.70;79.80
66710;DHT22;53624;0.000;0.000;2023-02-28T01:04:36;9.70;79.80
66710;DHT22;53624;0.000;0.000;2023-02-28T01:07:03;9.70;79.90
66710;DHT22;53624;0.000;0.000;2023-02-28T01:09:31;9.70;79.90
66710;DHT22;53624;0.000;0.000;2023-02-28T01:11:58;9.70;80.00
66710;DHT22;53624;0.000;0.000;2023-02-28T01:14:26;9.70;80.00
66710;DHT22;53624;0.000;0.000;2023-02-28T01:16:55;9.70;80.00
66710;DHT22;53624;0.000;0.000;2023-02-28T01:19:24;9.70;80.00
66710;DHT22;53624;0.000;0.000;2023-02-28T01:21:52;9.70;80.10
66710;DHT22;53624;0.000;0.000;2023-02-28T01:24:19;9.70;80.10
66710;DHT22;53624;0.000;0.000;2023-02-28T01:26:47;9.70;80.10
66710;DHT22;53624;0.000;0.000;2023-02-28T01:29:14;9.70;80.10
66710;DHT22;53624;0.000;0.000;2023-02-28T01:31:42;9.70;80.10
66710;DHT22;53624;0.000;0.000;2023-02-28T01:34:11;9.60;80.20
66710;DHT22;53624;0.000;0.000;2023-02-28T01:36:38;9.60;80.20
66710;DHT22;53624;0.000;0.000;2023-02-28T01:39:06;9.60;80.20
66710;DHT22;53624;0.000;0.000;2023-02-28T01:41:34;9.60;80.20
66710;DHT22;53624;0.000;0.000;2023-02-28T01:44:02;9.60;80.20
66710;DHT22;53624;0.000;0.000;2023-02-28T01:46:31;9.60;80.20
66710;DHT22;53624;0.000;0.000;2023-02-28T01:49:00;9.60;80.30
66710;DHT22;53624;0.000;0.000;2023-02-28T01:51:33;9.60;80.30
66710;DHT22;53624;0.000;0.000;2023-02-28T01:54:05;9.60;80.40
66710;DHT22;53624;0.000;0.000;2023-02-28T01:56:41;9.60;80.40
66710;DHT22;53624;0.000;0.000;2023-02-28T01:59:12;9.60;80.40
66710;DHT22;53624;0.000;0.000;2023-02-28T02:01:40;9.60;80.50
66710;DHT22;53624;0.000;0.000;2023-02-28T02:04:08;9.50;80.50
66710;DHT22;53624;0.000;0.000;2023-02-28T02:06:38;9.50;80.50
66710;DHT22;53624;0.000;0.000;2023-02-28T02:09:09;9.50;80.50
66710;DHT22;53624;0.000;0.000;2023-02-28T02:11:37;9.50;80.50
66710;DHT22;53624;0.000;0.000;2023-02-28T02:14:16;9.50;80.60
66710;DHT22;53624;0.000;0.000;2023-02-28T02:16:53;9.50;80.60
66710;DHT22;53624;0.000;0.000;2023-02-28T02:19:33;9.50;80.60
66710;DHT22;53624;0.000;0.000;2023-02-28T02:27:43;9.50;80.60
66710;DHT22;53624;0.000;0.000;2023-02-28T02:30:19;9.50;80.70
66710;DHT22;53624;0.000;0.000;2023-02-28T02:35:38;9.40;80.80
66710;DHT22;53624;0.000;0.000;2023-02-28T02:38:08;9.40;80.80
66710;DHT22;53624;0.000;0.000;2023-02-28T02:40:38;9.40;80.80
66710;DHT22;53624;0.000;0.000;2023-02-28T02:43:08;9.40;80.80
66710;DHT22;53624;0.000;0.000;2023-02-28T02:45:40;9.40;80.80
66710;DHT22;53624;0.000;0.000;2023-02-28T02:48:10;9.40;80.90
66710;DHT22;53624;0.000;0.000;2023-02-28T02:50:42;9.40;80.90
66710;DHT22;53624;0.000;0.000;2023-02-28T02:53:11;9.40;81.00
66710;DHT22;53624;0.000;0.000;2023-02-28T02:55:40;9.40;81.00
66710;DHT22;53624;0.000;0.000;2023-02-28T02:58:10;9.40;81.00
66710;DHT22;53624;0.000;0.000;2023-02-28T03:00:40;9.40;81.00
66710;DHT22;53624;0.000;0.000;2023-02-28T03:03:10;9.40;81.00
66710;DHT22;53624;0.000;0.000;2023-02-28T03:05:41;9.40;81.00
66710;DHT22;53624;0.000;0.000;2023-02-28T03:08:09;9.30;81.00
66710;DHT22;53624;0.000;0.000;2023-02-28T03:10:37;9.30;81.00
66710;DHT22;53624;0.000;0.000;2023-02-28T03:13:12;9.30;81.00
66710;DHT22;53624;0.000;0.000;2023-02-28T03:15:45;9.30;81.10
66710;DHT22;53624;0.000;0.000;2023-02-28T03:18:17;9.30;81.10
66710;DHT22;53624;0.000;0.000;2023-02-28T03:20:52;9.30;81.10
66710;DHT22;53624;0.000;0.000;2023-02-28T03:23:23;9.30;81.10
66710;DHT22;53624;0.000;0.000;2023-02-28T03:25:54;9.30;81.10
66710;DHT22;53624;0.000;0.000;2023-02-28T03:28:27;9.30;81.10
66710;DHT22;53624;0.000;0.000;2023-02-28T03:30:59;9.30;81.20
66710;DHT22;53624;0.000;0.000;2023-02-28T03:33:28;9.20;81.20
66710;DHT22;53624;0.000;0.000;2023-02-28T03:35:59;9.20;81.20
66710;DHT22;53624;0.000;0.000;2023-02-28T03:38:28;9.20;81.20
66710;DHT22;53624;0.000;0.000;2023-02-28T03:40:57;9.20;81.20
66710;DHT22;53624;0.000;0.000;2023-02-28T03:43:28;9.20;81.20
66710;DHT22;53624;0.000;0.000;2023-02-28T03:45:56;9.20;81.30
66710;DHT22;53624;0.000;0.000;2023-02-28T03:48:27;9.20;81.30
66710;DHT22;53624;0.000;0.000;2023-02-28T03:50:59;9.20;81.30
66710;DHT22;53624;0.000;0.000;2023-02-28T03:53:28;9.20;81.40
66710;DHT22;53624;0.000;0.000;2023-02-28T03:55:56;9.10;81.40
66710;DHT22;53624;0.000;0.000;2023-02-28T03:58:27;9.10;81.40
66710;DHT22;53624;0.000;0.000;2023-02-28T04:00:58;9.10;81.40
66710;DHT22;53624;0.000;0.000;2023-02-28T04:03:34;9.10;81.40
66710;DHT22;53624;0.000;0.000;2023-02-28T04:06:04;9.10;81.40
66710;DHT22;53624;0.000;0.000;2023-02-28T04:08:32;9.10;81.40
66710;DHT22;53624;0.000;0.000;2023-02-28T04:11:01;9.10;81.40
66710;DHT22;53624;0.000;0.000;2023-02-28T04:13:30;9.10;81.50
66710;DHT22;53624;0.000;0.000;2023-02-28T04:15:57;9.10;81.50
66710;DHT22;53624;0.000;0.000;2023-02-28T04:18:25;9.10;81.60
66710;DHT22;53624;0.000;0.000;2023-02-28T04:20:52;9.10;81.60
66710;DHT22;53624;0.000;0.000;2023-02-28T04:23:21;9.10;81.60
66710;DHT22;53624;0.000;0.000;2023-02-28T04:25:49;9.00;81.60
66710;DHT22;53624;0.000;0.000;2023-02-28T04:28:17;9.00;81.60
66710;DHT22;53624;0.000;0.000;2023-02-28T04:30:44;9.00;81.60
66710;DHT22;53624;0.000;0.000;2023-02-28T04:33:11;9.00;81.60
66710;DHT22;53624;0.000;0.000;2023-02-28T04:35:39;9.00;81.60
66710;DHT22;53624;0.000;0.000;2023-02-28T04:38:06;9.00;81.60
66710;DHT22;53624;0.000;0.000;2023-02-28T04:40:35;9.00;81.60
66710;DHT22;53624;0.000;0.000;2023-02-28T04:43:03;9.00;81.60
66710;DHT22;53624;0.000;0.000;2023-02-28T04:45:30;9.00;81.60
66710;DHT22;53624;0.000;0.000;2023-02-28T04:47:59;9.00;81.60
66710;DHT22;53624;0.000;0.000;2023-02-28T04:50:27;9.00;81.50
66710;DHT22;53624;0.000;0.000;2023-02-28T04:52:54;9.00;81.60
66710;DHT22;53624;0.000;0.000;2023-02-28T04:55:22;8.90;81.50
66710;DHT22;53624;0.000;0.000;2023-02-28T04:57:51;9.00;81.60
66710;DHT22;53624;0.000;0.000;2023-02-28T05:00:18;8.90;82.30
66710;DHT22;53624;0.000;0.000;2023-02-28T05:02:46;8.90;81.50
66710;DHT22;53624;0.000;0.000;2023-02-28T05:05:13;8.90;81.50
66710;DHT22;53624;0.000;0.000;2023-02-28T05:07:44;8.90;81.50
66710;DHT22;53624;0.000;0.000;2023-02-28T05:10:11;8.90;81.60
66710;DHT22;53624;0.000;0.000;2023-02-28T05:12:39;8.90;81.60
66710;DHT22;53624;0.000;0.000;2023-02-28T05:15:08;8.90;81.60
66710;DHT22;53624;0.000;0.000;2023-02-28T05:17:39;8.90;81.60
66710;DHT22;53624;0.000;0.000;2023-02-28T05:20:07;8.90;81.60
66710;DHT22;53624;0.000;0.000;2023-02-28T05:22:36;8.90;81.70
66710;DHT22;53624;0.000;0.000;2023-02-28T05:25:04;8.90;81.80
66710;DHT22;53624;0.000;0.000;2023-02-28T05:27:32;8.90;81.80
66710;DHT22;53624;0.000;0.000;2023-02-28T05:29:59;8.90;81.80
66710;DHT22;53624;0.000;0.000;2023-02-28T05:32:30;8.90;81.80
66710;DHT22;53624;0.000;0.000;2023-02-28T05:34:58;8.90;81.80
66710;DHT22;53624;0.000;0.000;2023-02-28T05:37:25;8.90;81.80
66710;DHT22;53624;0.000;0.000;2023-02-28T05:39:53;8.90;81.80
66710;DHT22;53624;0.000;0.000;2023-02-28T05:42:20;8.90;81.80
66710;DHT22;53624;0.000;0.000;2023-02-28T05:44:48;8.90;81.80
66710;DHT22;53624;0.000;0.000;2023-02-28T05:47:15;8.90;81.80
66710;DHT22;53624;0.000;0.000;2023-02-28T05:49:44;8.90;81.90
66710;DHT22;53624;0.000;0.000;2023-02-28T05:52:12;8.90;81.90
66710;DHT22;53624;0.000;0.000;2023-02-28T05:54:39;8.80;81.80
66710;DHT22;53624;0.000;0.000;2023-02-28T05:57:07;8.80;81.80
66710;DHT22;53624;0.000;0.000;2023-02-28T05:59:35;8.80;81.80
66710;DHT22;53624;0.000;0.000;2023-02-28T06:02:05;8.80;81.90
66710;DHT22;53624;0.000;0.000;2023-02-28T06:04:33;8.80;81.90
66710;DHT22;53624;0.000;0.000;2023-02-28T06:07:02;8.90;82.00
66710;DHT22;53624;0.000;0.000;2023-02-28T06:09:29;8.80;81.90
66710;DHT22;53624;0.000;0.000;2023-02-28T06:11:57;8.90;82.00
66710;DHT22;53624;0.000;0.000;2023-02-28T06:14:25;8.80;81.80
66710;DHT22;53624;0.000;0.000;2023-02-28T06:16:52;8.80;81.80
66710;DHT22;53624;0.000;0.000;2023-02-28T06:19:20;8.80;81.80
66710;DHT22;53624;0.000;0.000;2023-02-28T06:21:49;8.80;81.80
66710;DHT22;53624;0.000;0.000;2023-02-28T06:24:19;8.80;81.80
66710;DHT22;53624;0.000;0.000;2023-02-28T06:26:47;8.80;81.80
66710;DHT22;53624;0.000;0.000;2023-02-28T06:29:15;8.80;81.80
66710;DHT22;53624;0.000;0.000;2023-02-28T06:31:44;8.80;81.70
66710;DHT22;53624;0.000;0.000;2023-02-28T06:34:11;8.80;81.60
66710;DHT22;53624;0.000;0.000;2023-02-28T06:36:39;8.80;81.60
66710;DHT22;53624;0.000;0.000;2023-02-28T06:39:07;8.80;81.60
66710;DHT22;53624;0.000;0.000;2023-02-28T06:41:36;8.80;81.60
66710;DHT22;53624;0.000;0.000;2023-02-28T06:44:08;8.80;81.60
66710;DHT22;53624;0.000;0.000;2023-02-28T06:46:38;8.80;81.60
66710;DHT22;53624;0.000;0.000;2023-02-28T06:49:06;8.80;81.50
66710;DHT22;53624;0.000;0.000;2023-02-28T06:51:35;8.80;81.40
66710;DHT22;53624;0.000;0.000;2023-02-28T06:54:02;8.80;81.40
66710;DHT22;53624;0.000;0.000;2023-02-28T06:56:30;8.80;81.40
66710;DHT22;53624;0.000;0.000;2023-02-28T06:58:59;8.80;81.30
66710;DHT22;53624;0.000;0.000;2023-02-28T07:01:26;8.80;81.20
66710;DHT22;53624;0.000;0.000;2023-02-28T07:03:54;8.80;81.20
66710;DHT22;53624;0.000;0.000;2023-02-28T07:06:21;8.80;81.10
66710;DHT22;53624;0.000;0.000;2023-02-28T07:08:49;8.80;81.10
66710;DHT22;53624;0.000;0.000;2023-02-28T07:11:18;8.90;81.10
66710;DHT22;53624;0.000;0.000;2023-02-28T07:13:45;8.90;81.10
66710;DHT22;53624;0.000;0.000;2023-02-28T07:16:15;8.90;81.00
66710;DHT22;53624;0.000;0.000;2023-02-28T07:18:42;8.90;81.00
66710;DHT22;53624;0.000;0.000;2023-02-28T07:21:10;8.90;80.90
66710;DHT22;53624;0.000;0.000;2023-02-28T07:23:37;8.90;80.80
66710;DHT22;53624;0.000;0.000;2023-02-28T07:26:05;9.00;80.80
66710;DHT22;53624;0.000;0.000;2023-02-28T07:28:33;9.00;80.70
66710;DHT22;53624;0.000;0.000;2023-02-28T07:31:04;9.00;80.60
66710;DHT22;53624;0.000;0.000;2023-02-28T07:33:33;9.00;80.60
66710;DHT22;53624;0.000;0.000;2023-02-28T07:36:01;9.10;80.60
66710;DHT22;53624;0.000;0.000;2023-02-28T07:38:28;9.10;80.50
66710;DHT22;53624;0.000;0.000;2023-02-28T07:40:56;9.10;80.50
66710;DHT22;53624;0.000;0.000;2023-02-28T07:43:23;9.10;80.50
66710;DHT22;53624;0.000;0.000;2023-02-28T07:45:51;9.10;80.50
66710;DHT22;53624;0.000;0.000;2023-02-28T07:48:18;9.10;80.50
66710;DHT22;53624;0.000;0.000;2023-02-28T07:50:55;9.10;80.50
66710;DHT22;53624;0.000;0.000;2023-02-28T07:53:22;9.10;80.40
66710;DHT22;53624;0.000;0.000;2023-02-28T07:55:50;9.10;80.50
66710;DHT22;53624;0.000;0.000;2023-02-28T07:58:17;9.10;80.50
66710;DHT22;53624;0.000;0.000;2023-02-28T08:00:45;9.10;80.40
66710;DHT22;53624;0.000;0.000;2023-02-28T08:03:12;9.10;80.40
66710;DHT22;53624;0.000;0.000;2023-02-28T08:05:40;9.20;80.50
66710;DHT22;53624;0.000;0.000;2023-02-28T08:08:09;9.20;80.40
66710;DHT22;53624;0.000;0.000;2023-02-28T08:10:36;9.20;80.30
66710;DHT22;53624;0.000;0.000;2023-02-28T08:13:04;9.20;80.30
66710;DHT22;53624;0.000;0.000;2023-02-28T08:15:31;9.20;80.20
66710;DHT22;53624;0.000;0.000;2023-02-28T08:17:59;9.30;80.20
66710;DHT22;53624;0.000;0.000;2023-02-28T08:20:26;9.30;80.10
66710;DHT22;53624;0.000;0.000;2023-02-28T08:22:54;9.30;80.00
66710;DHT22;53624;0.000;0.000;2023-02-28T08:25:23;9.40;80.00
66710;DHT22;53624;0.000;0.000;2023-02-28T08:27:50;9.40;79.90
66710;DHT22;53624;0.000;0.000;2023-02-28T08:30:18;9.40;79.80
66710;DHT22;53624;0.000;0.000;2023-02-28T08:32:45;9.50;79.80
66710;DHT22;53624;0.000;0.000;2023-02-28T08:35:13;9.50;79.80
66710;DHT22;53624;0.000;0.000;2023-02-28T08:37:40;9.50;79.70
66710;DHT22;53624;0.000;0.000;2023-02-28T08:40:08;9.60;79.70
66710;DHT22;53624;0.000;0.000;2023-02-28T08:42:37;9.60;79.60
66710;DHT22;53624;0.000;0.000;2023-02-28T08:45:05;9.60;79.60
66710;DHT22;53624;0.000;0.000;2023-02-28T08:47:33;9.60;79.50
66710;DHT22;53624;0.000;0.000;2023-02-28T08:50:00;9.70;79.50
66710;DHT22;53624;0.000;0.000;2023-02-28T08:52:27;9.70;79.40
66710;DHT22;53624;0.000;0.000;2023-02-28T08:54:55;9.70;79.50
66710;DHT22;53624;0.000;0.000;2023-02-28T08:57:22;9.70;79.50
66710;DHT22;53624;0.000;0.000;2023-02-28T08:59:53;9.70;79.50
66710;DHT22;53624;0.000;0.000;2023-02-28T09:02:20;9.70;79.60
66710;DHT22;53624;0.000;0.000;2023-02-28T09:04:48;9.70;79.60
66710;DHT22;53624;0.000;0.000;2023-02-28T09:07:15;9.70;79.60
66710;DHT22;53624;0.000;0.000;2023-02-28T09:09:43;9.70;79.70
66710;DHT22;53624;0.000;0.000;2023-02-28T09:12:20;9.70;79.70
66710;DHT22;53624;0.000;0.000;2023-02-28T09:14:48;9.70;79.60
66710;DHT22;53624;0.000;0.000;2023-02-28T09:17:17;9.80;79.70
66710;DHT22;53624;0.000;0.000;2023-02-28T09:19:44;9.80;79.70
66710;DHT22;53624;0.000;0.000;2023-02-28T09:22:12;9.80;79.60
66710;DHT22;53624;0.000;0.000;2023-02-28T09:24:39;9.80;79.60
66710;DHT22;53624;0.000;0.000;2023-02-28T09:27:07;9.90;79.50
66710;DHT22;53624;0.000;0.000;2023-02-28T09:29:34;9.90;79.50
66710;DHT22;53624;0.000;0.000;2023-02-28T09:32:02;9.90;79.40
66710;DHT22;53624;0.000;0.000;2023-02-28T09:34:33;9.90;79.30
66710;DHT22;53624;0.000;0.000;2023-02-28T09:37:02;10.00;79.20
66710;DHT22;53624;0.000;0.000;2023-02-28T09:39:30;10.10;79.20
66710;DHT22;53624;0.000;0.000;2023-02-28T09:41:57;10.10;79.00
66710;DHT22;53624;0.000;0.000;2023-02-28T09:44:27;10.20;78.80
66710;DHT22;53624;0.000;0.000;2023-02-28T09:46:58;10.30;78.70
66710;DHT22;53624;0.000;0.000;2023-02-28T09:49:28;10.30;78.50
66710;DHT22;53624;0.000;0.000;2023-02-28T09:52:01;10.40;78.40
66710;DHT22;53624;0.000;0.000;2023-02-28T09:54:30;10.50;78.20
66710;DHT22;53624;0.000;0.000;2023-02-28T09:56:59;10.60;78.10
66710;DHT22;53624;0.000;0.000;2023-02-28T09:59:30;10.60;77.90
66710;DHT22;53624;0.000;0.000;2023-02-28T10:02:02;10.60;77.90
66710;DHT22;53624;0.000;0.000;2023-02-28T10:04:41;10.60;77.90
66710;DHT22;53624;0.000;0.000;2023-02-28T10:07:14;10.70;78.00
66710;DHT22;53624;0.000;0.000;2023-02-28T10:09:45;10.70;77.90
66710;DHT22;53624;0.000;0.000;2023-02-28T10:12:14;10.70;78.00
66710;DHT22;53624;0.000;0.000;2023-02-28T10:14:43;10.70;78.30
66710;DHT22;53624;0.000;0.000;2023-02-28T10:17:13;10.70;78.10
66710;DHT22;53624;0.000;0.000;2023-02-28T10:19:44;10.70;78.10
66710;DHT22;53624;0.000;0.000;2023-02-28T10:22:16;10.70;78.10
66710;DHT22;53624;0.000;0.000;2023-02-28T10:24:46;10.70;77.90
66710;DHT22;53624;0.000;0.000;2023-02-28T10:27:14;10.70;78.20
66710;DHT22;53624;0.000;0.000;2023-02-28T10:29:43;10.70;78.20
66710;DHT22;53624;0.000;0.000;2023-02-28T10:32:11;10.70;78.20
66710;DHT22;53624;0.000;0.000;2023-02-28T10:34:40;10.70;78.00
66710;DHT22;53624;0.000;0.000;2023-02-28T10:37:08;10.70;78.20
66710;DHT22;53624;0.000;0.000;2023-02-28T10:39:39;10.70;78.10
66710;DHT22;53624;0.000;0.000;2023-02-28T10:42:20;10.80;78.00
66710;DHT22;53624;0.000;0.000;2023-02-28T10:45:10;10.70;77.80
66710;DHT22;53624;0.000;0.000;2023-02-28T10:47:48;10.80;77.80
66710;DHT22;53624;0.000;0.000;2023-02-28T10:50:37;10.80;78.00
66710;DHT22;53624;0.000;0.000;2023-02-28T10:53:10;10.80;77.50
66710;DHT22;53624;0.000;0.000;2023-02-28T10:55:42;10.90;77.60
66710;DHT22;53624;0.000;0.000;2023-02-28T10:58:22;10.90;77.80
66710;DHT22;53624;0.000;0.000;2023-02-28T11:00:50;10.90;78.00
66710;DHT22;53624;0.000;0.000;2023-02-28T11:03:25;10.90;77.90
66710;DHT22;53624;0.000;0.000;2023-02-28T11:05:55;10.90;78.10
66710;DHT22;53624;0.000;0.000;2023-02-28T11:08:23;10.90;77.90
66710;DHT22;53624;0.000;0.000;2023-02-28T11:10:55;10.90;78.00
66710;DHT22;53624;0.000;0.000;2023-02-28T11:13:32;10.90;78.00
66710;DHT22;53624;0.000;0.000;2023-02-28T11:16:00;10.90;77.90
66710;DHT22;53624;0.000;0.000;2023-02-28T11:18:29;10.90;78.00
66710;DHT22;53624;0.000;0.000;2023-02-28T11:20:58;10.90;78.10
66710;DHT22;53624;0.000;0.000;2023-02-28T11:23:26;11.00;78.10
66710;DHT22;53624;0.000;0.000;2023-02-28T11:25:58;11.00;78.10
66710;DHT22;53624;0.000;0.000;2023-02-28T11:28:27;11.10;78.10
66710;DHT22;53624;0.000;0.000;2023-02-28T11:31:02;11.20;78.00
66710;DHT22;53624;0.000;0.000;2023-02-28T11:33:31;11.20;77.90
66710;DHT22;53624;0.000;0.000;2023-02-28T11:36:00;11.20;77.80
66710;DHT22;53624;0.000;0.000;2023-02-28T11:38:28;11.30;77.80
66710;DHT22;53624;0.000;0.000;2023-02-28T11:41:05;11.30;77.70
66710;DHT22;53624;0.000;0.000;2023-02-28T11:43:39;11.30;77.80
66710;DHT22;53624;0.000;0.000;2023-02-28T11:46:19;11.30;77.80
66710;DHT22;53624;0.000;0.000;2023-02-28T11:48:50;11.30;77.90
66710;DHT22;53624;0.000;0.000;2023-02-28T11:51:21;11.30;78.10
66710;DHT22;53624;0.000;0.000;2023-02-28T11:53:56;11.30;78.10
66710;DHT22;53624;0.000;0.000;2023-02-28T11:56:29;11.30;78.20
66710;DHT22;53624;0.000;0.000;2023-02-28T11:59:10;11.30;78.10
66710;DHT22;53624;0.000;0.000;2023-02-28T12:01:43;11.30;78.20
66710;DHT22;53624;0.000;0.000;2023-02-28T12:04:21;11.30;78.30
66710;DHT22;53624;0.000;0.000;2023-02-28T12:06:54;11.30;78.40
66710;DHT22;53624;0.000;0.000;2023-02-28T12:12:19;11.30;78.50
66710;DHT22;53624;0.000;0.000;2023-02-28T12:14:53;11.30;78.50
66710;DHT22;53624;0.000;0.000;2023-02-28T12:17:30;11.30;78.60
66710;DHT22;53624;0.000;0.000;2023-02-28T12:20:02;11.30;78.60
66710;DHT22;53624;0.000;0.000;2023-02-28T12:22:35;11.30;78.40
66710;DHT22;53624;0.000;0.000;2023-02-28T12:27:49;11.30;78.80
66710;DHT22;53624;0.000;0.000;2023-02-28T12:30:19;11.30;78.80
66710;DHT22;53624;0.000;0.000;2023-02-28T12:32:49;11.30;79.30
66710;DHT22;53624;0.000;0.000;2023-02-28T12:35:21;11.30;79.00
66710;DHT22;53624;0.000;0.000;2023-02-28T12:37:50;11.20;78.80
66710;DHT22;53624;0.000;0.000;2023-02-28T12:40:21;11.20;79.00
66710;DHT22;53624;0.000;0.000;2023-02-28T12:42:51;11.20;79.00
66710;DHT22;53624;0.000;0.000;2023-02-28T12:45:20;11.20;78.90
66710;DHT22;53624;0.000;0.000;2023-02-28T12:47:50;11.20;78.90
66710;DHT22;53624;0.000;0.000;2023-02-28T12:50:19;11.20;78.80
66710;DHT22;53624;0.000;0.000;2023-02-28T12:52:50;11.20;78.90
66710;DHT22;53624;0.000;0.000;2023-02-28T12:55:20;11.20;78.80
66710;DHT22;53624;0.000;0.000;2023-02-28T12:57:52;11.20;78.80
66710;DHT22;53624;0.000;0.000;2023-02-28T13:00:25;11.20;78.80
66710;DHT22;53624;0.000;0.000;2023-02-28T13:05:55;11.20;78.90
66710;DHT22;53624;0.000;0.000;2023-02-28T13:08:35;11.20;78.80
66710;DHT22;53624;0.000;0.000;2023-02-28T13:11:15;11.20;78.80
66710;DHT22;53624;0.000;0.000;2023-02-28T13:13:57;11.20;78.80
66710;DHT22;53624;0.000;0.000;2023-02-28T13:16:24;11.20;79.00
66710;DHT22;53624;0.000;0.000;2023-02-28T13:18:52;11.20;78.80
66710;DHT22;53624;0.000;0.000;2023-02-28T13:21:41;11.20;78.80
66710;DHT22;53624;0.000;0.000;2023-02-28T13:24:10;11.20;78.80
66710;DHT22;53624;0.000;0.000;2023-02-28T13:29:29;11.20;78.80
66710;DHT22;53624;0.000;0.000;2023-02-28T13:34:46;11.20;78.70
66710;DHT22;53624;0.000;0.000;2023-02-28T13:37:35;11.20;78.80
66710;DHT22;53624;0.000;0.000;2023-02-28T13:40:13;11.20;78.70
66710;DHT22;53624;0.000;0.000;2023-02-28T13:42:53;11.20;78.80
66710;DHT22;53624;0.000;0.000;2023-02-28T13:45:26;11.20;78.90
66710;DHT22;53624;0.000;0.000;2023-02-28T13:47:54;11.20;79.00
66710;DHT22;53624;0.000;0.000;2023-02-28T13:50:30;11.20;79.10
66710;DHT22;53624;0.000;0.000;2023-02-28T13:55:48;11.10;78.90
66710;DHT22;53624;0.000;0.000;2023-02-28T13:58:28;11.10;79.00
66710;DHT22;53624;0.000;0.000;2023-02-28T14:01:08;11.10;79.00
66710;DHT22;53624;0.000;0.000;2023-02-28T14:03:42;11.10;79.00
66710;DHT22;53624;0.000;0.000;2023-02-28T14:06:16;11.10;79.00
66710;DHT22;53624;0.000;0.000;2023-02-28T14:08:47;11.10;79.00
66710;DHT22;53624;0.000;0.000;2023-02-28T14:11:23;11.00;78.90
66710;DHT22;53624;0.000;0.000;2023-02-28T14:13:52;11.00;79.10
66710;DHT22;53624;0.000;0.000;2023-02-28T14:16:21;11.00;79.00
66710;DHT22;53624;0.000;0.000;2023-02-28T14:18:51;11.00;79.00
66710;DHT22;53624;0.000;0.000;2023-02-28T14:21:23;11.00;79.00
66710;DHT22;53624;0.000;0.000;2023-02-28T14:29:27;11.00;79.00
66710;DHT22;53624;0.000;0.000;2023-02-28T14:32:01;10.90;79.00
66710;DHT22;53624;0.000;0.000;2023-02-28T14:34:36;10.90;79.00
66710;DHT22;53624;0.000;0.000;2023-02-28T14:37:04;10.90;79.10
66710;DHT22;53624;0.000;0.000;2023-02-28T14:39:33;10.90;79.10
66710;DHT22;53624;0.000;0.000;2023-02-28T14:42:02;10.90;79.10
66710;DHT22;53624;0.000;0.000;2023-02-28T14:44:30;10.90;79.20
66710;DHT22;53624;0.000;0.000;2023-02-28T14:47:00;10.80;79.10
66710;DHT22;53624;0.000;0.000;2023-02-28T14:49:34;10.80;79.20
66710;DHT22;53624;0.000;0.000;2023-02-28T14:52:06;10.80;79.10
66710;DHT22;53624;0.000;0.000;2023-02-28T14:54:35;10.80;79.10
66710;DHT22;53624;0.000;0.000;2023-02-28T14:57:03;10.80;79.10
66710;DHT22;53624;0.000;0.000;2023-02-28T14:59:31;10.80;79.10
66710;DHT22;53624;0.000;0.000;2023-02-28T15:02:17;10.80;79.10
66710;DHT22;53624;0.000;0.000;2023-02-28T15:04:52;10.80;79.10
66710;DHT22;53624;0.000;0.000;2023-02-28T15:07:19;10.80;79.10
66710;DHT22;53624;0.000;0.000;2023-02-28T15:10:07;10.70;79.20
66710;DHT22;53624;0.000;0.000;2023-02-28T15:12:35;10.70;79.20
66710;DHT22;53624;0.000;0.000;2023-02-28T15:15:03;10.70;79.20
66710;DHT22;53624;0.000;0.000;2023-02-28T15:17:32;10.70;79.30
66710;DHT22;53624;0.000;0.000;2023-02-28T15:19:59;10.70;79.40
66710;DHT22;53624;0.000;0.000;2023-02-28T15:22:28;10.70;79.40
66710;DHT22;53624;0.000;0.000;2023-02-28T15:24:57;10.70;79.40
66710;DHT22;53624;0.000;0.000;2023-02-28T15:27:25;10.60;79.40
66710;DHT22;53624;0.000;0.000;2023-02-28T15:29:54;10.60;79.40
66710;DHT22;53624;0.000;0.000;2023-02-28T15:32:26;10.60;79.40
66710;DHT22;53624;0.000;0.000;2023-02-28T15:34:56;10.60;80.20
66710;DHT22;53624;0.000;0.000;2023-02-28T15:37:33;10.60;79.50
66710;DHT22;53624;0.000;0.000;2023-02-28T15:40:07;10.50;79.50
66710;DHT22;53624;0.000;0.000;2023-02-28T15:42:37;10.50;79.50
66710;DHT22;53624;0.000;0.000;2023-02-28T15:45:05;10.50;79.60
66710;DHT22;53624;0.000;0.000;2023-02-28T15:47:32;10.50;79.60
66710;DHT22;53624;0.000;0.000;2023-02-28T15:50:02;10.50;79.60
66710;DHT22;53624;0.000;0.000;2023-02-28T15:52:33;10.40;79.60
66710;DHT22;53624;0.000;0.000;2023-02-28T15:55:07;10.40;79.60
66710;DHT22;53624;0.000;0.000;2023-02-28T15:57:35;10.40;79.60
66710;DHT22;53624;0.000;0.000;2023-02-28T16:00:03;10.40;79.70
66710;DHT22;53624;0.000;0.000;2023-02-28T16:02:37;10.40;79.70
66710;DHT22;53624;0.000;0.000;2023-02-28T16:05:23;10.30;79.70
66710;DHT22;53624;0.000;0.000;2023-02-28T16:07:54;10.30;79.70
66710;DHT22;53624;0.000;0.000;2023-02-28T16:10:22;10.30;79.70
66710;DHT22;53624;0.000;0.000;2023-02-28T16:12:52;10.30;79.80
66710;DHT22;53624;0.000;0.000;2023-02-28T16:15:21;10.30;79.80
66710;DHT22;53624;0.000;0.000;2023-02-28T16:17:48;10.30;79.90
66710;DHT22;53624;0.000;0.000;2023-02-28T16:20:17;10.30;80.00
66710;DHT22;53624;0.000;0.000;2023-02-28T16:22:46;10.20;79.90
66710;DHT22;53624;0.000;0.000;2023-02-28T16:25:13;10.20;80.00
66710;DHT22;53624;0.000;0.000;2023-02-28T16:27:41;10.20;80.00
66710;DHT22;53624;0.000;0.000;2023-02-28T16:30:09;10.20;80.00
66710;DHT22;53624;0.000;0.000;2023-02-28T16:32:42;10.20;80.10
66710;DHT22;53624;0.000;0.000;2023-02-28T16:35:10;10.20;80.10
66710;DHT22;53624;0.000;0.000;2023-02-28T16:37:39;10.20;80.10
66710;DHT22;53624;0.000;0.000;2023-02-28T16:40:09;10.10;80.10
66710;DHT22;53624;0.000;0.000;2023-02-28T16:42:41;10.10;80.10